sensor_id;sensor_type;location;lat;lon;timestamp;P1;durP1;ratioP1;P2;durP2;ratioP2
58238;SDS011;44037;55.638;37.356;2022-11-11T00:00:50;42.72;;;23.45;;
58238;SDS011;44037;55.638;37.356;2022-11-11T00:03:24;42.95;;;22.75;;
58238;SDS011;44037;55.638;37.356;2022-11-11T00:05:51;43.17;;;24.60;;
58238;SDS011;44037;55.638;37.356;2022-11-11T00:08:18;40.90;;;23.38;;
58238;SDS011;44037;55.638;37.356;2022-11-11T00:10:45;42.85;;;22.05;;
58238;SDS011;44037;55.638;37.356;2022-11-11T00:13:12;40.90;;;22.17;;
58238;SDS011;44037;55.638;37.356;2022-11-11T00:15:39;44.13;;;22.15;;
58238;SDS011;44037;55.638;37.356;2022-11-11T00:18:09;39.88;;;21.23;;
58238;SDS011;44037;55.638;37.356;2022-11-11T00:20:56;40.70;;;19.50;;
58238;SDS011;44037;55.638;37.356;2022-11-11T00:23:41;39.05;;;20.85;;
58238;SDS011;44037;55.638;37.356;2022-11-11T00:26:26;37.45;;;21.02;;
58238;SDS011;44037;55.638;37.356;2022-11-11T00:28:53;37.15;;;19.63;;
58238;SDS011;44037;55.638;37.356;2022-11-11T00:31:20;38.13;;;21.38;;
58238;SDS011;44037;55.638;37.356;2022-11-11T00:33:49;36.58;;;19.52;;
58238;SDS011;44037;55.638;37.356;2022-11-11T00:36:18;40.00;;;20.88;;
58238;SDS011;44037;55.638;37.356;2022-11-11T00:38:44;41.72;;;20.85;;
58238;SDS011;44037;55.638;37.356;2022-11-11T00:41:12;35.90;;;19.08;;
58238;SDS011;44037;55.638;37.356;2022-11-11T00:43:40;41.47;;;18.92;;
58238;SDS011;44037;55.638;37.356;2022-11-11T00:46:08;40.40;;;21.13;;
58238;SDS011;44037;55.638;37.356;2022-11-11T00:48:54;37.58;;;20.52;;
58238;SDS011;44037;55.638;37.356;2022-11-11T00:51:39;37.33;;;19.80;;
58238;SDS011;44037;55.638;37.356;2022-11-11T00:54:06;34.65;;;20.08;;
58238;SDS011;44037;55.638;37.356;2022-11-11T00:56:34;34.45;;;19.30;;
58238;SDS011;44037;55.638;37.356;2022-11-11T00:59:02;34.42;;;19.08;;
58238;SDS011;44037;55.638;37.356;2022-11-11T01:01:29;31.35;;;18.23;;
58238;SDS011;44037;55.638;37.356;2022-11-11T01:03:58;35.85;;;19.50;;
58238;SDS011;44037;55.638;37.356;2022-11-11T01:06:25;33.53;;;18.60;;
58238;SDS011;44037;55.638;37.356;2022-11-11T01:08:53;29.70;;;17.75;;
58238;SDS011;44037;55.638;37.356;2022-11-11T01:11:21;28.52;;;17.63;;
58238;SDS011;44037;55.638;37.356;2022-11-11T01:13:49;30.88;;;17.98;;
58238;SDS011;44037;55.638;37.356;2022-11-11T01:16:17;31.63;;;16.45;;
58238;SDS011;44037;55.638;37.356;2022-11-11T01:18:46;33.05;;;18.17;;
58238;SDS011;44037;55.638;37.356;2022-11-11T01:21:15;28.65;;;17.30;;
58238;SDS011;44037;55.638;37.356;2022-11-11T01:23:44;27.15;;;16.08;;
58238;SDS011;44037;55.638;37.356;2022-11-11T01:26:13;27.63;;;16.33;;
58238;SDS011;44037;55.638;37.356;2022-11-11T01:28:43;27.90;;;15.57;;
58238;SDS011;44037;55.638;37.356;2022-11-11T01:31:11;28.15;;;15.55;;
58238;SDS011;44037;55.638;37.356;2022-11-11T01:33:40;26.25;;;15.15;;
58238;SDS011;44037;55.638;37.356;2022-11-11T01:36:08;26.83;;;15.23;;
58238;SDS011;44037;55.638;37.356;2022-11-11T01:38:38;24.73;;;14.45;;
58238;SDS011;44037;55.638;37.356;2022-11-11T01:41:07;29.90;;;15.38;;
58238;SDS011;44037;55.638;37.356;2022-11-11T01:43:54;23.65;;;13.00;;
58238;SDS011;44037;55.638;37.356;2022-11-11T01:46:26;25.25;;;14.55;;
58238;SDS011;44037;55.638;37.356;2022-11-11T01:48:57;27.35;;;14.82;;
58238;SDS011;44037;55.638;37.356;2022-11-11T01:51:47;22.85;;;12.43;;
58238;SDS011;44037;55.638;37.356;2022-11-11T01:54:21;22.88;;;12.90;;
58238;SDS011;44037;55.638;37.356;2022-11-11T01:56:54;21.35;;;13.15;;
58238;SDS011;44037;55.638;37.356;2022-11-11T01:59:26;22.52;;;11.93;;
58238;SDS011;44037;55.638;37.356;2022-11-11T02:01:56;18.95;;;11.85;;
58238;SDS011;44037;55.638;37.356;2022-11-11T02:04:23;22.95;;;13.82;;
58238;SDS011;44037;55.638;37.356;2022-11-11T02:07:08;19.67;;;11.73;;
58238;SDS011;44037;55.638;37.356;2022-11-11T02:09:38;18.83;;;12.00;;
58238;SDS011;44037;55.638;37.356;2022-11-11T02:12:10;17.15;;;11.23;;
58238;SDS011;44037;55.638;37.356;2022-11-11T02:14:56;21.00;;;10.80;;
58238;SDS011;44037;55.638;37.356;2022-11-11T02:17:26;18.02;;;10.95;;
58238;SDS011;44037;55.638;37.356;2022-11-11T02:19:56;17.45;;;10.95;;
58238;SDS011;44037;55.638;37.356;2022-11-11T02:22:28;15.52;;;9.88;;
58238;SDS011;44037;55.638;37.356;2022-11-11T02:25:01;17.15;;;10.73;;
58238;SDS011;44037;55.638;37.356;2022-11-11T02:27:33;17.02;;;9.80;;
58238;SDS011;44037;55.638;37.356;2022-11-11T02:30:03;16.42;;;9.60;;
58238;SDS011;44037;55.638;37.356;2022-11-11T02:32:40;14.98;;;9.10;;
58238;SDS011;44037;55.638;37.356;2022-11-11T02:35:10;16.83;;;10.18;;
58238;SDS011;44037;55.638;37.356;2022-11-11T02:37:40;17.02;;;9.35;;
58238;SDS011;44037;55.638;37.356;2022-11-11T02:40:12;17.67;;;8.88;;
58238;SDS011;44037;55.638;37.356;2022-11-11T02:42:41;17.90;;;9.70;;
58238;SDS011;44037;55.638;37.356;2022-11-11T02:45:08;15.70;;;8.90;;
58238;SDS011;44037;55.638;37.356;2022-11-11T02:47:35;15.60;;;9.05;;
58238;SDS011;44037;55.638;37.356;2022-11-11T02:50:02;15.57;;;9.60;;
58238;SDS011;44037;55.638;37.356;2022-11-11T02:52:30;19.58;;;10.20;;
58238;SDS011;44037;55.638;37.356;2022-11-11T02:54:57;17.75;;;9.23;;
58238;SDS011;44037;55.638;37.356;2022-11-11T02:57:26;14.98;;;9.13;;
58238;SDS011;44037;55.638;37.356;2022-11-11T02:59:53;14.30;;;8.95;;
58238;SDS011;44037;55.638;37.356;2022-11-11T03:02:22;14.77;;;9.32;;
58238;SDS011;44037;55.638;37.356;2022-11-11T03:04:51;16.67;;;9.05;;
58238;SDS011;44037;55.638;37.356;2022-11-11T03:07:18;14.55;;;8.23;;
58238;SDS011;44037;55.638;37.356;2022-11-11T03:09:45;12.80;;;8.77;;
58238;SDS011;44037;55.638;37.356;2022-11-11T03:12:13;14.20;;;8.20;;
58238;SDS011;44037;55.638;37.356;2022-11-11T03:14:42;11.77;;;7.55;;
58238;SDS011;44037;55.638;37.356;2022-11-11T03:17:09;15.48;;;8.18;;
58238;SDS011;44037;55.638;37.356;2022-11-11T03:19:53;15.98;;;9.63;;
58238;SDS011;44037;55.638;37.356;2022-11-11T03:22:41;11.77;;;8.05;;
58238;SDS011;44037;55.638;37.356;2022-11-11T03:25:08;12.02;;;8.40;;
58238;SDS011;44037;55.638;37.356;2022-11-11T03:27:52;11.77;;;8.10;;
58238;SDS011;44037;55.638;37.356;2022-11-11T03:30:20;15.35;;;8.90;;
58238;SDS011;44037;55.638;37.356;2022-11-11T03:32:48;11.73;;;7.68;;
58238;SDS011;44037;55.638;37.356;2022-11-11T03:35:15;12.27;;;7.68;;
58238;SDS011;44037;55.638;37.356;2022-11-11T03:37:42;12.95;;;8.15;;
58238;SDS011;44037;55.638;37.356;2022-11-11T03:40:26;12.90;;;7.05;;
58238;SDS011;44037;55.638;37.356;2022-11-11T03:42:53;13.52;;;8.00;;
58238;SDS011;44037;55.638;37.356;2022-11-11T03:45:22;12.00;;;7.28;;
58238;SDS011;44037;55.638;37.356;2022-11-11T03:47:49;12.75;;;8.63;;
58238;SDS011;44037;55.638;37.356;2022-11-11T03:50:16;12.27;;;7.88;;
58238;SDS011;44037;55.638;37.356;2022-11-11T03:52:43;15.13;;;8.85;;
58238;SDS011;44037;55.638;37.356;2022-11-11T03:55:10;16.27;;;8.98;;
58238;SDS011;44037;55.638;37.356;2022-11-11T03:57:39;18.55;;;8.10;;
58238;SDS011;44037;55.638;37.356;2022-11-11T04:00:08;13.88;;;7.43;;
58238;SDS011;44037;55.638;37.356;2022-11-11T04:02:37;13.48;;;7.63;;
58238;SDS011;44037;55.638;37.356;2022-11-11T04:05:21;14.52;;;7.25;;
58238;SDS011;44037;55.638;37.356;2022-11-11T04:08:15;11.63;;;7.32;;
58238;SDS011;44037;55.638;37.356;2022-11-11T04:11:02;15.82;;;7.95;;
58238;SDS011;44037;55.638;37.356;2022-11-11T04:13:32;11.55;;;7.55;;
58238;SDS011;44037;55.638;37.356;2022-11-11T04:16:17;14.68;;;8.07;;
58238;SDS011;44037;55.638;37.356;2022-11-11T04:18:46;17.60;;;8.57;;
58238;SDS011;44037;55.638;37.356;2022-11-11T04:21:30;12.82;;;7.65;;
58238;SDS011;44037;55.638;37.356;2022-11-11T04:24:09;14.10;;;8.27;;
58238;SDS011;44037;55.638;37.356;2022-11-11T04:26:52;20.65;;;8.48;;
58238;SDS011;44037;55.638;37.356;2022-11-11T04:29:20;11.65;;;7.15;;
58238;SDS011;44037;55.638;37.356;2022-11-11T04:31:58;12.63;;;6.85;;
58238;SDS011;44037;55.638;37.356;2022-11-11T04:34:45;21.70;;;12.48;;
58238;SDS011;44037;55.638;37.356;2022-11-11T04:37:14;15.02;;;9.52;;
58238;SDS011;44037;55.638;37.356;2022-11-11T04:39:42;18.13;;;9.45;;
58238;SDS011;44037;55.638;37.356;2022-11-11T04:42:29;14.13;;;9.05;;
58238;SDS011;44037;55.638;37.356;2022-11-11T04:44:57;13.05;;;8.25;;
58238;SDS011;44037;55.638;37.356;2022-11-11T04:47:51;12.15;;;7.30;;
58238;SDS011;44037;55.638;37.356;2022-11-11T04:50:20;15.57;;;8.45;;
58238;SDS011;44037;55.638;37.356;2022-11-11T04:52:47;14.63;;;8.00;;
58238;SDS011;44037;55.638;37.356;2022-11-11T04:55:15;17.17;;;8.23;;
58238;SDS011;44037;55.638;37.356;2022-11-11T04:58:00;12.70;;;8.25;;
58238;SDS011;44037;55.638;37.356;2022-11-11T05:00:27;13.40;;;8.15;;
58238;SDS011;44037;55.638;37.356;2022-11-11T05:02:55;11.90;;;7.22;;
58238;SDS011;44037;55.638;37.356;2022-11-11T05:05:41;10.30;;;7.40;;
58238;SDS011;44037;55.638;37.356;2022-11-11T05:08:27;10.55;;;7.38;;
58238;SDS011;44037;55.638;37.356;2022-11-11T05:11:11;10.38;;;6.63;;
58238;SDS011;44037;55.638;37.356;2022-11-11T05:13:38;12.82;;;7.97;;
58238;SDS011;44037;55.638;37.356;2022-11-11T05:16:24;12.38;;;7.50;;
58238;SDS011;44037;55.638;37.356;2022-11-11T05:19:11;11.15;;;6.60;;
58238;SDS011;44037;55.638;37.356;2022-11-11T05:21:59;12.97;;;6.67;;
58238;SDS011;44037;55.638;37.356;2022-11-11T05:24:30;10.77;;;6.32;;
58238;SDS011;44037;55.638;37.356;2022-11-11T05:27:15;10.23;;;7.13;;
58238;SDS011;44037;55.638;37.356;2022-11-11T05:29:42;15.18;;;8.10;;
58238;SDS011;44037;55.638;37.356;2022-11-11T05:32:09;11.55;;;6.93;;
58238;SDS011;44037;55.638;37.356;2022-11-11T05:34:36;11.52;;;6.97;;
58238;SDS011;44037;55.638;37.356;2022-11-11T05:37:05;20.98;;;13.30;;
58238;SDS011;44037;55.638;37.356;2022-11-11T05:39:32;15.10;;;9.43;;
58238;SDS011;44037;55.638;37.356;2022-11-11T05:41:59;14.45;;;8.73;;
58238;SDS011;44037;55.638;37.356;2022-11-11T05:44:26;12.20;;;8.02;;
58238;SDS011;44037;55.638;37.356;2022-11-11T05:46:53;12.07;;;7.75;;
58238;SDS011;44037;55.638;37.356;2022-11-11T05:49:20;11.05;;;7.05;;
58238;SDS011;44037;55.638;37.356;2022-11-11T05:51:47;16.48;;;7.82;;
58238;SDS011;44037;55.638;37.356;2022-11-11T05:54:16;12.35;;;7.57;;
58238;SDS011;44037;55.638;37.356;2022-11-11T05:56:43;10.18;;;7.43;;
58238;SDS011;44037;55.638;37.356;2022-11-11T05:59:10;13.82;;;7.72;;
58238;SDS011;44037;55.638;37.356;2022-11-11T06:01:37;11.82;;;7.63;;
58238;SDS011;44037;55.638;37.356;2022-11-11T06:04:05;14.98;;;8.93;;
58238;SDS011;44037;55.638;37.356;2022-11-11T06:06:33;12.40;;;7.85;;
58238;SDS011;44037;55.638;37.356;2022-11-11T06:09:01;12.30;;;6.50;;
58238;SDS011;44037;55.638;37.356;2022-11-11T06:11:30;9.55;;;6.60;;
58238;SDS011;44037;55.638;37.356;2022-11-11T06:13:57;12.02;;;6.80;;
58238;SDS011;44037;55.638;37.356;2022-11-11T06:16:24;13.95;;;7.07;;
58238;SDS011;44037;55.638;37.356;2022-11-11T06:18:52;13.27;;;7.15;;
58238;SDS011;44037;55.638;37.356;2022-11-11T06:21:19;11.30;;;6.45;;
58238;SDS011;44037;55.638;37.356;2022-11-11T06:23:46;11.48;;;7.78;;
58238;SDS011;44037;55.638;37.356;2022-11-11T06:26:13;12.20;;;7.40;;
58238;SDS011;44037;55.638;37.356;2022-11-11T06:28:43;11.35;;;7.07;;
58238;SDS011;44037;55.638;37.356;2022-11-11T06:31:12;10.52;;;7.70;;
58238;SDS011;44037;55.638;37.356;2022-11-11T06:33:41;13.30;;;6.78;;
58238;SDS011;44037;55.638;37.356;2022-11-11T06:36:08;11.10;;;7.13;;
58238;SDS011;44037;55.638;37.356;2022-11-11T06:38:37;11.00;;;6.68;;
58238;SDS011;44037;55.638;37.356;2022-11-11T06:41:05;11.80;;;6.75;;
58238;SDS011;44037;55.638;37.356;2022-11-11T06:43:32;11.50;;;6.85;;
58238;SDS011;44037;55.638;37.356;2022-11-11T06:46:01;11.07;;;6.18;;
58238;SDS011;44037;55.638;37.356;2022-11-11T06:48:28;12.52;;;7.55;;
58238;SDS011;44037;55.638;37.356;2022-11-11T06:50:59;11.52;;;6.57;;
58238;SDS011;44037;55.638;37.356;2022-11-11T06:53:28;11.13;;;6.85;;
58238;SDS011;44037;55.638;37.356;2022-11-11T06:55:55;10.52;;;6.65;;
58238;SDS011;44037;55.638;37.356;2022-11-11T06:58:22;10.75;;;7.53;;
58238;SDS011;44037;55.638;37.356;2022-11-11T07:00:50;11.40;;;7.18;;
58238;SDS011;44037;55.638;37.356;2022-11-11T07:03:20;12.23;;;6.80;;
58238;SDS011;44037;55.638;37.356;2022-11-11T07:05:47;11.18;;;7.07;;
58238;SDS011;44037;55.638;37.356;2022-11-11T07:08:16;12.95;;;6.85;;
58238;SDS011;44037;55.638;37.356;2022-11-11T07:10:44;11.27;;;7.35;;
58238;SDS011;44037;55.638;37.356;2022-11-11T07:13:13;14.63;;;7.82;;
58238;SDS011;44037;55.638;37.356;2022-11-11T07:15:41;13.48;;;7.13;;
58238;SDS011;44037;55.638;37.356;2022-11-11T07:18:09;11.88;;;7.63;;
58238;SDS011;44037;55.638;37.356;2022-11-11T07:20:38;11.70;;;7.10;;
58238;SDS011;44037;55.638;37.356;2022-11-11T07:23:05;11.23;;;8.18;;
58238;SDS011;44037;55.638;37.356;2022-11-11T07:25:33;15.52;;;8.23;;
58238;SDS011;44037;55.638;37.356;2022-11-11T07:28:00;13.35;;;7.38;;
58238;SDS011;44037;55.638;37.356;2022-11-11T07:30:27;15.23;;;8.30;;
58238;SDS011;44037;55.638;37.356;2022-11-11T07:32:54;12.90;;;7.93;;
58238;SDS011;44037;55.638;37.356;2022-11-11T07:35:22;16.55;;;8.85;;
58238;SDS011;44037;55.638;37.356;2022-11-11T07:37:50;14.65;;;9.40;;
58238;SDS011;44037;55.638;37.356;2022-11-11T07:40:17;16.50;;;9.15;;
58238;SDS011;44037;55.638;37.356;2022-11-11T07:42:45;12.13;;;7.20;;
58238;SDS011;44037;55.638;37.356;2022-11-11T07:45:12;16.10;;;9.23;;
58238;SDS011;44037;55.638;37.356;2022-11-11T07:47:43;15.63;;;7.80;;
58238;SDS011;44037;55.638;37.356;2022-11-11T07:50:11;14.05;;;8.57;;
58238;SDS011;44037;55.638;37.356;2022-11-11T07:52:38;14.82;;;7.63;;
58238;SDS011;44037;55.638;37.356;2022-11-11T07:55:07;13.80;;;7.72;;
58238;SDS011;44037;55.638;37.356;2022-11-11T07:57:35;15.85;;;8.32;;
58238;SDS011;44037;55.638;37.356;2022-11-11T08:00:03;13.98;;;8.80;;
58238;SDS011;44037;55.638;37.356;2022-11-11T08:02:31;16.67;;;8.23;;
58238;SDS011;44037;55.638;37.356;2022-11-11T08:04:58;14.63;;;8.75;;
58238;SDS011;44037;55.638;37.356;2022-11-11T08:07:25;12.65;;;8.35;;
58238;SDS011;44037;55.638;37.356;2022-11-11T08:09:52;16.30;;;8.20;;
58238;SDS011;44037;55.638;37.356;2022-11-11T08:12:20;15.65;;;9.07;;
58238;SDS011;44037;55.638;37.356;2022-11-11T08:15:05;18.40;;;9.75;;
58238;SDS011;44037;55.638;37.356;2022-11-11T08:17:35;14.90;;;8.07;;
58238;SDS011;44037;55.638;37.356;2022-11-11T08:20:04;13.93;;;8.40;;
58238;SDS011;44037;55.638;37.356;2022-11-11T08:22:34;16.23;;;8.68;;
58238;SDS011;44037;55.638;37.356;2022-11-11T08:25:03;17.05;;;9.35;;
58238;SDS011;44037;55.638;37.356;2022-11-11T08:27:33;15.25;;;8.82;;
58238;SDS011;44037;55.638;37.356;2022-11-11T08:30:01;14.35;;;8.48;;
58238;SDS011;44037;55.638;37.356;2022-11-11T08:32:29;15.68;;;8.98;;
58238;SDS011;44037;55.638;37.356;2022-11-11T08:34:57;13.15;;;8.15;;
58238;SDS011;44037;55.638;37.356;2022-11-11T08:37:24;51.78;;;31.00;;
58238;SDS011;44037;55.638;37.356;2022-11-11T08:39:51;13.23;;;7.97;;
58238;SDS011;44037;55.638;37.356;2022-11-11T08:42:18;14.65;;;8.27;;
58238;SDS011;44037;55.638;37.356;2022-11-11T08:44:46;15.60;;;9.38;;
58238;SDS011;44037;55.638;37.356;2022-11-11T08:47:14;17.25;;;8.57;;
58238;SDS011;44037;55.638;37.356;2022-11-11T08:49:41;14.82;;;9.30;;
58238;SDS011;44037;55.638;37.356;2022-11-11T08:52:08;16.10;;;9.65;;
58238;SDS011;44037;55.638;37.356;2022-11-11T08:54:35;14.88;;;8.95;;
58238;SDS011;44037;55.638;37.356;2022-11-11T08:57:02;13.38;;;9.20;;
58238;SDS011;44037;55.638;37.356;2022-11-11T08:59:29;13.60;;;8.70;;
58238;SDS011;44037;55.638;37.356;2022-11-11T09:01:58;11.65;;;8.18;;
58238;SDS011;44037;55.638;37.356;2022-11-11T09:04:25;16.17;;;8.45;;
58238;SDS011;44037;55.638;37.356;2022-11-11T09:06:52;13.95;;;8.00;;
58238;SDS011;44037;55.638;37.356;2022-11-11T09:09:19;13.18;;;8.68;;
58238;SDS011;44037;55.638;37.356;2022-11-11T09:11:46;13.68;;;7.50;;
58238;SDS011;44037;55.638;37.356;2022-11-11T09:14:13;11.98;;;7.38;;
58238;SDS011;44037;55.638;37.356;2022-11-11T09:16:40;14.55;;;8.25;;
58238;SDS011;44037;55.638;37.356;2022-11-11T09:19:08;12.40;;;8.23;;
58238;SDS011;44037;55.638;37.356;2022-11-11T09:21:35;12.60;;;7.78;;
58238;SDS011;44037;55.638;37.356;2022-11-11T09:24:03;12.57;;;8.35;;
58238;SDS011;44037;55.638;37.356;2022-11-11T09:26:30;12.60;;;7.88;;
58238;SDS011;44037;55.638;37.356;2022-11-11T09:28:57;12.35;;;8.80;;
58238;SDS011;44037;55.638;37.356;2022-11-11T09:31:24;14.98;;;8.40;;
58238;SDS011;44037;55.638;37.356;2022-11-11T09:33:51;12.82;;;8.15;;
58238;SDS011;44037;55.638;37.356;2022-11-11T09:36:20;13.95;;;7.43;;
58238;SDS011;44037;55.638;37.356;2022-11-11T09:38:47;12.20;;;7.78;;
58238;SDS011;44037;55.638;37.356;2022-11-11T09:41:17;11.05;;;7.75;;
58238;SDS011;44037;55.638;37.356;2022-11-11T09:43:49;11.60;;;8.23;;
58238;SDS011;44037;55.638;37.356;2022-11-11T09:49:17;12.13;;;8.02;;
58238;SDS011;44037;55.638;37.356;2022-11-11T09:52:03;11.55;;;8.13;;
58238;SDS011;44037;55.638;37.356;2022-11-11T09:54:40;11.57;;;7.72;;
58238;SDS011;44037;55.638;37.356;2022-11-11T09:57:15;11.90;;;6.57;;
58238;SDS011;44037;55.638;37.356;2022-11-11T09:59:48;9.98;;;6.72;;
58238;SDS011;44037;55.638;37.356;2022-11-11T10:02:20;11.48;;;6.43;;
58238;SDS011;44037;55.638;37.356;2022-11-11T10:04:55;9.82;;;7.38;;
58238;SDS011;44037;55.638;37.356;2022-11-11T10:07:30;11.65;;;8.00;;
58238;SDS011;44037;55.638;37.356;2022-11-11T10:10:05;11.10;;;6.97;;
58238;SDS011;44037;55.638;37.356;2022-11-11T10:12:40;12.32;;;8.27;;
58238;SDS011;44037;55.638;37.356;2022-11-11T10:15:13;12.43;;;8.13;;
58238;SDS011;44037;55.638;37.356;2022-11-11T10:17:44;12.30;;;8.23;;
58238;SDS011;44037;55.638;37.356;2022-11-11T10:20:18;13.65;;;7.95;;
58238;SDS011;44037;55.638;37.356;2022-11-11T10:22:52;14.68;;;7.50;;
58238;SDS011;44037;55.638;37.356;2022-11-11T10:25:27;14.35;;;8.18;;
58238;SDS011;44037;55.638;37.356;2022-11-11T10:27:55;10.35;;;7.32;;
58238;SDS011;44037;55.638;37.356;2022-11-11T10:30:25;14.52;;;8.00;;
58238;SDS011;44037;55.638;37.356;2022-11-11T10:32:56;15.25;;;8.50;;
58238;SDS011;44037;55.638;37.356;2022-11-11T10:35:26;12.52;;;8.48;;
58238;SDS011;44037;55.638;37.356;2022-11-11T10:38:00;14.35;;;8.32;;
58238;SDS011;44037;55.638;37.356;2022-11-11T10:40:36;12.05;;;7.95;;
58238;SDS011;44037;55.638;37.356;2022-11-11T10:43:10;12.07;;;7.75;;
58238;SDS011;44037;55.638;37.356;2022-11-11T10:45:46;15.02;;;8.77;;
58238;SDS011;44037;55.638;37.356;2022-11-11T10:48:20;14.70;;;8.57;;
58238;SDS011;44037;55.638;37.356;2022-11-11T10:51:03;11.27;;;7.75;;
58238;SDS011;44037;55.638;37.356;2022-11-11T13:17:51;9.15;;;5.53;;
58238;SDS011;44037;55.638;37.356;2022-11-11T13:28:12;8.73;;;5.57;;
58238;SDS011;44037;55.638;37.356;2022-11-11T13:37:02;10.38;;;5.65;;
58238;SDS011;44037;55.638;37.356;2022-11-11T13:43:48;9.00;;;5.22;;
58238;SDS011;44037;55.638;37.356;2022-11-11T13:50:08;9.70;;;5.38;;
58238;SDS011;44037;55.638;37.356;2022-11-11T13:56:02;10.70;;;5.07;;
58238;SDS011;44037;55.638;37.356;2022-11-11T13:58:40;8.00;;;4.57;;
58238;SDS011;44037;55.638;37.356;2022-11-11T14:02:11;9.57;;;4.53;;
58238;SDS011;44037;55.638;37.356;2022-11-11T14:12:42;7.05;;;4.43;;
58238;SDS011;44037;55.638;37.356;2022-11-11T14:16:56;10.73;;;5.65;;
58238;SDS011;44037;55.638;37.356;2022-11-11T14:19:45;8.38;;;4.60;;
58238;SDS011;44037;55.638;37.356;2022-11-11T14:22:31;7.30;;;4.68;;
58238;SDS011;44037;55.638;37.356;2022-11-11T14:25:21;6.88;;;4.40;;
58238;SDS011;44037;55.638;37.356;2022-11-11T14:28:32;6.75;;;4.45;;
58238;SDS011;44037;55.638;37.356;2022-11-11T14:31:53;6.05;;;4.82;;
58238;SDS011;44037;55.638;37.356;2022-11-11T14:34:53;9.25;;;5.13;;
58238;SDS011;44037;55.638;37.356;2022-11-11T14:43:49;12.10;;;5.45;;
58238;SDS011;44037;55.638;37.356;2022-11-11T14:46:34;9.50;;;5.97;;
58238;SDS011;44037;55.638;37.356;2022-11-11T14:49:49;9.05;;;4.90;;
58238;SDS011;44037;55.638;37.356;2022-11-11T14:55:49;13.80;;;6.00;;
58238;SDS011;44037;55.638;37.356;2022-11-11T14:58:35;11.95;;;6.28;;
58238;SDS011;44037;55.638;37.356;2022-11-11T15:01:13;9.18;;;5.63;;
58238;SDS011;44037;55.638;37.356;2022-11-11T15:04:38;11.02;;;4.57;;
58238;SDS011;44037;55.638;37.356;2022-11-11T15:07:14;10.00;;;4.50;;
58238;SDS011;44037;55.638;37.356;2022-11-11T15:13:05;9.93;;;4.88;;
58238;SDS011;44037;55.638;37.356;2022-11-11T15:15:58;6.90;;;4.13;;
58238;SDS011;44037;55.638;37.356;2022-11-11T15:21:54;14.45;;;8.60;;
58238;SDS011;44037;55.638;37.356;2022-11-11T15:24:45;6.75;;;4.25;;
58238;SDS011;44037;55.638;37.356;2022-11-11T15:27:27;7.05;;;4.18;;
58238;SDS011;44037;55.638;37.356;2022-11-11T15:31:04;7.22;;;5.35;;
58238;SDS011;44037;55.638;37.356;2022-11-11T15:34:23;6.55;;;4.35;;
58238;SDS011;44037;55.638;37.356;2022-11-11T15:36:59;8.50;;;5.55;;
58238;SDS011;44037;55.638;37.356;2022-11-11T15:39:45;19.02;;;11.13;;
58238;SDS011;44037;55.638;37.356;2022-11-11T15:42:45;7.18;;;4.45;;
58238;SDS011;44037;55.638;37.356;2022-11-11T15:45:31;5.28;;;3.90;;
58238;SDS011;44037;55.638;37.356;2022-11-11T15:48:12;5.93;;;3.30;;
58238;SDS011;44037;55.638;37.356;2022-11-11T16:14:43;9.02;;;5.55;;
58238;SDS011;44037;55.638;37.356;2022-11-11T16:17:51;8.15;;;4.35;;
58238;SDS011;44037;55.638;37.356;2022-11-11T16:21:20;7.18;;;3.50;;
58238;SDS011;44037;55.638;37.356;2022-11-11T16:23:58;9.07;;;4.25;;
58238;SDS011;44037;55.638;37.356;2022-11-11T16:27:11;7.40;;;4.70;;
58238;SDS011;44037;55.638;37.356;2022-11-11T16:32:59;10.63;;;5.53;;
58238;SDS011;44037;55.638;37.356;2022-11-11T16:35:29;13.00;;;8.10;;
58238;SDS011;44037;55.638;37.356;2022-11-11T16:38:35;8.85;;;4.35;;
58238;SDS011;44037;55.638;37.356;2022-11-11T16:41:27;8.73;;;4.07;;
58238;SDS011;44037;55.638;37.356;2022-11-11T16:44:32;6.53;;;3.72;;
58238;SDS011;44037;55.638;37.356;2022-11-11T16:50:20;7.38;;;5.15;;
58238;SDS011;44037;55.638;37.356;2022-11-11T16:53:08;7.43;;;3.63;;
58238;SDS011;44037;55.638;37.356;2022-11-11T16:57:00;6.65;;;3.47;;
58238;SDS011;44037;55.638;37.356;2022-11-11T17:04:09;5.35;;;3.42;;
58238;SDS011;44037;55.638;37.356;2022-11-11T17:07:38;6.32;;;3.45;;
58238;SDS011;44037;55.638;37.356;2022-11-11T17:10:18;8.02;;;4.22;;
58238;SDS011;44037;55.638;37.356;2022-11-11T17:12:59;6.10;;;4.00;;
58238;SDS011;44037;55.638;37.356;2022-11-11T17:15:31;5.78;;;3.67;;
58238;SDS011;44037;55.638;37.356;2022-11-11T17:18:01;6.88;;;4.15;;
58238;SDS011;44037;55.638;37.356;2022-11-11T17:20:35;5.28;;;3.45;;
58238;SDS011;44037;55.638;37.356;2022-11-11T17:23:17;5.25;;;3.92;;
58238;SDS011;44037;55.638;37.356;2022-11-11T17:25:58;7.65;;;3.95;;
58238;SDS011;44037;55.638;37.356;2022-11-11T17:29:46;6.90;;;4.10;;
58238;SDS011;44037;55.638;37.356;2022-11-11T17:32:40;16.55;;;5.82;;
58238;SDS011;44037;55.638;37.356;2022-11-11T17:35:21;6.47;;;4.05;;
58238;SDS011;44037;55.638;37.356;2022-11-11T17:37:56;8.27;;;5.45;;
58238;SDS011;44037;55.638;37.356;2022-11-11T17:40:42;6.47;;;4.50;;
58238;SDS011;44037;55.638;37.356;2022-11-11T17:43:38;10.68;;;6.15;;
58238;SDS011;44037;55.638;37.356;2022-11-11T17:46:59;9.25;;;5.57;;
58238;SDS011;44037;55.638;37.356;2022-11-11T17:53:49;10.52;;;5.68;;
58238;SDS011;44037;55.638;37.356;2022-11-11T18:00:03;8.55;;;5.38;;
58238;SDS011;44037;55.638;37.356;2022-11-11T18:02:51;8.00;;;5.75;;
58238;SDS011;44037;55.638;37.356;2022-11-11T18:09:24;10.20;;;6.38;;
58238;SDS011;44037;55.638;37.356;2022-11-11T18:18:51;11.63;;;7.13;;
58238;SDS011;44037;55.638;37.356;2022-11-11T18:22:05;10.65;;;6.13;;
58238;SDS011;44037;55.638;37.356;2022-11-11T18:31:45;9.15;;;5.97;;
58238;SDS011;44037;55.638;37.356;2022-11-11T18:38:06;13.15;;;6.50;;
58238;SDS011;44037;55.638;37.356;2022-11-11T18:44:12;9.35;;;5.78;;
58238;SDS011;44037;55.638;37.356;2022-11-11T18:46:49;12.18;;;6.53;;
58238;SDS011;44037;55.638;37.356;2022-11-11T18:49:29;10.85;;;6.22;;
58238;SDS011;44037;55.638;37.356;2022-11-11T18:55:15;9.55;;;5.72;;
58238;SDS011;44037;55.638;37.356;2022-11-11T18:57:47;9.38;;;5.43;;
58238;SDS011;44037;55.638;37.356;2022-11-11T19:00:28;9.25;;;5.20;;
58238;SDS011;44037;55.638;37.356;2022-11-11T19:03:01;9.15;;;5.45;;
58238;SDS011;44037;55.638;37.356;2022-11-11T19:05:35;10.05;;;5.50;;
58238;SDS011;44037;55.638;37.356;2022-11-11T19:08:23;9.13;;;5.32;;
58238;SDS011;44037;55.638;37.356;2022-11-11T19:10:51;11.35;;;5.93;;
58238;SDS011;44037;55.638;37.356;2022-11-11T19:13:19;9.40;;;5.82;;
58238;SDS011;44037;55.638;37.356;2022-11-11T19:15:49;8.80;;;5.32;;
58238;SDS011;44037;55.638;37.356;2022-11-11T19:18:35;13.18;;;7.35;;
58238;SDS011;44037;55.638;37.356;2022-11-11T19:21:16;9.95;;;5.65;;
58238;SDS011;44037;55.638;37.356;2022-11-11T19:24:00;12.82;;;6.78;;
58238;SDS011;44037;55.638;37.356;2022-11-11T19:26:48;7.97;;;5.55;;
58238;SDS011;44037;55.638;37.356;2022-11-11T19:29:25;10.27;;;6.35;;
58238;SDS011;44037;55.638;37.356;2022-11-11T19:31:54;8.35;;;5.55;;
58238;SDS011;44037;55.638;37.356;2022-11-11T19:34:27;11.13;;;5.88;;
58238;SDS011;44037;55.638;37.356;2022-11-11T19:36:55;11.90;;;6.53;;